createdAt,value
2023-10-31T00:02:26.433Z,0.90
2023-10-31T00:04:53.073Z,0.80
2023-10-31T00:07:19.603Z,0.73
2023-10-31T00:09:46.189Z,0.88
2023-10-31T00:12:12.751Z,0.77
2023-10-31T00:14:40.544Z,0.85
2023-10-31T00:17:07.221Z,0.73
2023-10-31T00:19:33.782Z,0.82
2023-10-31T00:22:00.448Z,0.73
2023-10-31T00:24:27.178Z,0.70
2023-10-31T00:26:53.739Z,0.77
2023-10-31T00:29:20.241Z,0.73
2023-10-31T00:31:46.853Z,0.80
2023-10-31T00:34:13.491Z,0.90
2023-10-31T00:36:39.978Z,1.42
2023-10-31T00:39:06.507Z,1.75
2023-10-31T00:41:33.075Z,1.80
2023-10-31T00:44:00.074Z,1.85
2023-10-31T00:46:26.597Z,2.35
2023-10-31T00:48:53.149Z,2.97
2023-10-31T00:51:19.683Z,2.78
2023-10-31T00:53:46.834Z,3.47
2023-10-31T00:56:13.333Z,3.45
2023-10-31T00:58:39.936Z,4.05
2023-10-31T01:01:06.705Z,3.53
2023-10-31T01:03:33.389Z,4.38
2023-10-31T01:05:59.944Z,4.30
2023-10-31T01:08:26.478Z,4.55
2023-10-31T01:10:53.079Z,3.80
2023-10-31T01:13:19.952Z,4.35
2023-10-31T01:15:46.580Z,4.15
2023-10-31T01:18:13.237Z,4.00
2023-10-31T01:20:40.243Z,4.20
2023-10-31T01:23:06.772Z,4.25
2023-10-31T01:25:33.330Z,4.32
2023-10-31T01:27:59.888Z,4.28
2023-10-31T01:30:26.564Z,4.13
2023-10-31T01:32:53.266Z,4.20
2023-10-31T01:35:19.870Z,4.57
2023-10-31T01:37:46.480Z,4.63
2023-10-31T01:40:15.961Z,3.67
2023-10-31T01:42:42.882Z,4.28
2023-10-31T01:45:09.885Z,4.55
2023-10-31T01:47:36.567Z,3.75
2023-10-31T01:50:03.711Z,3.67
2023-10-31T01:52:33.922Z,3.58
2023-10-31T01:55:02.211Z,3.50
2023-10-31T01:57:28.743Z,3.40
2023-10-31T01:59:55.479Z,4.13
2023-10-31T02:02:24.239Z,3.97
2023-10-31T02:04:52.344Z,3.97
2023-10-31T02:07:19.126Z,4.60
2023-10-31T02:09:45.640Z,4.13
2023-10-31T02:12:12.259Z,4.05
2023-10-31T02:14:38.813Z,4.55
2023-10-31T02:17:05.377Z,4.55
2023-10-31T02:19:31.982Z,5.10
2023-10-31T02:21:58.589Z,5.03
2023-10-31T02:24:25.103Z,5.40
2023-10-31T02:26:52.348Z,4.60
2023-10-31T02:29:18.908Z,5.25
2023-10-31T02:31:45.517Z,5.50
2023-10-31T02:34:12.107Z,5.70
2023-10-31T02:36:38.628Z,6.50
2023-10-31T02:39:05.252Z,5.90
2023-10-31T02:41:31.870Z,6.03
2023-10-31T02:43:59.280Z,6.32
2023-10-31T02:46:25.852Z,6.38
2023-10-31T02:48:52.412Z,6.03
2023-10-31T02:51:18.933Z,6.35
2023-10-31T02:53:45.628Z,6.05
2023-10-31T02:56:12.145Z,5.82
2023-10-31T02:58:38.770Z,5.45
2023-10-31T03:01:05.354Z,4.97
2023-10-31T03:03:31.978Z,4.90
2023-10-31T03:05:58.511Z,4.80
2023-10-31T03:08:25.013Z,4.40
2023-10-31T03:10:51.748Z,3.30
2023-10-31T03:13:21.591Z,3.40
2023-10-31T03:15:48.669Z,3.50
2023-10-31T03:18:16.274Z,3.08
2023-10-31T03:20:49.103Z,3.40
2023-10-31T03:23:16.087Z,3.25
2023-10-31T03:25:42.682Z,3.50
2023-10-31T03:28:20.284Z,3.70
2023-10-31T03:30:48.763Z,2.90
2023-10-31T03:35:42.168Z,2.67
2023-10-31T03:38:08.817Z,2.70
2023-10-31T03:40:35.545Z,2.22
2023-10-31T03:43:02.175Z,2.28
2023-10-31T03:45:28.699Z,2.20
2023-10-31T03:47:55.288Z,2.40
2023-10-31T03:50:21.866Z,1.98
2023-10-31T03:52:48.405Z,1.70
2023-10-31T03:55:15.057Z,1.83
2023-10-31T03:57:41.627Z,1.20
2023-10-31T04:00:09.480Z,1.30
2023-10-31T04:02:35.970Z,1.20
2023-10-31T04:05:03.450Z,1.20
2023-10-31T04:07:30.039Z,1.00
2023-10-31T04:09:58.025Z,1.00
2023-10-31T04:12:24.606Z,1.00
2023-10-31T04:14:51.165Z,0.90
2023-10-31T04:17:17.691Z,0.77
2023-10-31T04:19:44.279Z,0.80
2023-10-31T04:22:10.846Z,0.70
2023-10-31T04:24:37.366Z,0.60
2023-10-31T04:27:04.045Z,0.60
2023-10-31T04:29:30.577Z,0.60
2023-10-31T04:31:57.275Z,0.63
2023-10-31T04:34:23.850Z,0.60
2023-10-31T04:36:50.556Z,0.40
2023-10-31T04:39:17.204Z,0.52
2023-10-31T04:41:43.851Z,0.60
2023-10-31T04:44:10.475Z,0.80
2023-10-31T04:46:37.141Z,0.70
2023-10-31T04:49:03.688Z,0.70
2023-10-31T04:51:37.692Z,0.70
2023-10-31T04:54:05.034Z,0.80
2023-10-31T04:56:31.897Z,0.60
2023-10-31T04:58:58.591Z,0.85
2023-10-31T05:01:25.403Z,1.20
2023-10-31T05:03:59.278Z,0.90
2023-10-31T05:06:33.601Z,1.00
2023-10-31T05:09:00.227Z,1.00
2023-10-31T05:11:27.183Z,0.90
2023-10-31T05:13:54.620Z,0.90
2023-10-31T05:16:21.411Z,0.98
2023-10-31T05:18:47.989Z,1.05
2023-10-31T05:21:20.989Z,1.10
2023-10-31T05:23:47.824Z,1.00
2023-10-31T05:26:14.416Z,0.80
2023-10-31T05:28:41.020Z,0.70
2023-10-31T05:31:07.618Z,0.70
2023-10-31T05:33:34.281Z,0.80
2023-10-31T05:36:00.871Z,0.70
2023-10-31T05:38:27.446Z,0.80
2023-10-31T05:40:53.948Z,0.60
2023-10-31T05:43:20.494Z,0.60
2023-10-31T05:45:47.081Z,0.57
2023-10-31T05:48:15.782Z,0.63
2023-10-31T05:50:43.668Z,0.77
2023-10-31T05:53:10.339Z,0.90
2023-10-31T05:55:41.030Z,0.82
2023-10-31T05:58:07.635Z,1.73
2023-10-31T06:00:34.121Z,1.55
2023-10-31T06:03:00.670Z,1.30
2023-10-31T06:05:27.364Z,1.30
2023-10-31T06:07:53.993Z,1.60
2023-10-31T06:10:21.461Z,1.60
2023-10-31T06:12:48.336Z,1.88
2023-10-31T06:15:15.106Z,2.22
2023-10-31T06:17:41.681Z,2.20
2023-10-31T06:20:09.534Z,2.50
2023-10-31T06:22:36.148Z,2.58
2023-10-31T06:25:03.325Z,2.72
2023-10-31T06:27:29.941Z,2.85
2023-10-31T06:30:10.949Z,3.15
2023-10-31T06:32:43.058Z,3.20
2023-10-31T06:35:09.649Z,3.50
2023-10-31T06:37:37.244Z,3.63
2023-10-31T06:40:05.653Z,3.95
2023-10-31T06:44:58.891Z,3.80
2023-10-31T06:47:25.483Z,4.15
2023-10-31T06:49:52.062Z,3.63
2023-10-31T06:52:18.816Z,3.47
2023-10-31T06:54:45.451Z,3.15
2023-10-31T06:57:12.062Z,3.55
2023-10-31T06:59:38.631Z,2.97
2023-10-31T07:02:05.687Z,2.50
2023-10-31T07:04:32.339Z,2.50
2023-10-31T07:06:59.109Z,2.28
2023-10-31T07:09:27.141Z,2.17
2023-10-31T07:11:53.968Z,1.60
2023-10-31T07:14:20.558Z,1.80
2023-10-31T07:16:49.322Z,1.60
2023-10-31T07:19:15.988Z,1.33
2023-10-31T07:21:42.566Z,1.20
2023-10-31T07:24:10.077Z,1.10
2023-10-31T07:26:37.051Z,1.30
2023-10-31T07:29:03.993Z,1.30
2023-10-31T07:31:30.728Z,1.45
2023-10-31T07:33:57.580Z,1.45
2023-10-31T07:36:24.142Z,1.10
2023-10-31T07:38:50.695Z,0.98
2023-10-31T07:41:17.288Z,1.10
2023-10-31T07:43:43.797Z,1.20
2023-10-31T07:46:10.446Z,1.20
2023-10-31T07:48:36.994Z,1.10
2023-10-31T07:51:03.776Z,1.13
2023-10-31T07:53:30.301Z,1.20
2023-10-31T07:55:56.825Z,1.20
2023-10-31T07:58:23.354Z,1.20
2023-10-31T08:00:50.081Z,1.10
2023-10-31T08:03:16.717Z,1.13
2023-10-31T08:05:43.635Z,1.33
2023-10-31T08:08:10.337Z,1.48
2023-10-31T08:10:36.911Z,1.40
2023-10-31T08:13:03.517Z,1.75
2023-10-31T08:15:30.145Z,1.50
2023-10-31T08:17:57.272Z,1.58
2023-10-31T08:20:23.971Z,1.60
2023-10-31T08:22:50.563Z,1.73
2023-10-31T08:25:17.189Z,1.80
2023-10-31T08:27:43.709Z,2.15
2023-10-31T08:30:10.804Z,1.70
2023-10-31T08:32:37.345Z,2.08
2023-10-31T08:35:04.616Z,1.90
2023-10-31T08:37:31.176Z,2.10
2023-10-31T08:39:57.848Z,1.85
2023-10-31T08:42:24.424Z,2.10
2023-10-31T08:44:51.122Z,2.35
2023-10-31T08:47:22.057Z,2.05
2023-10-31T08:49:48.735Z,2.08
2023-10-31T08:52:15.312Z,2.22
2023-10-31T08:54:41.936Z,2.28
2023-10-31T08:57:08.678Z,2.10
2023-10-31T08:59:35.341Z,2.25
2023-10-31T09:02:02.746Z,2.40
2023-10-31T09:04:29.461Z,2.33
2023-10-31T09:06:55.934Z,2.35
2023-10-31T09:09:22.431Z,2.20
2023-10-31T09:11:49.059Z,2.47
2023-10-31T09:14:15.593Z,2.08
2023-10-31T09:16:42.082Z,2.10
2023-10-31T09:19:08.581Z,2.30
2023-10-31T09:21:35.128Z,2.00
2023-10-31T09:24:03.034Z,2.05
2023-10-31T09:26:29.615Z,2.17
2023-10-31T09:28:56.557Z,2.17
2023-10-31T09:31:23.056Z,2.30
2023-10-31T09:33:49.763Z,2.30
2023-10-31T09:36:16.551Z,1.92
2023-10-31T09:38:43.165Z,2.33
2023-10-31T09:41:09.825Z,2.50
2023-10-31T09:43:36.525Z,2.60
2023-10-31T09:46:03.400Z,2.72
2023-10-31T09:48:30.273Z,2.83
2023-10-31T09:50:57.691Z,2.60
2023-10-31T09:53:25.264Z,2.65
2023-10-31T09:55:55.065Z,2.72
2023-10-31T09:58:21.799Z,2.90
2023-10-31T10:00:48.673Z,2.40
2023-10-31T10:03:16.319Z,2.80
2023-10-31T10:05:45.496Z,2.78
2023-10-31T10:08:12.178Z,3.00
2023-10-31T10:10:38.753Z,2.50
2023-10-31T10:13:05.621Z,2.97
2023-10-31T10:15:44.407Z,2.67
2023-10-31T10:18:11.169Z,2.40
2023-10-31T10:20:54.854Z,2.40
2023-10-31T10:23:21.618Z,2.20
2023-10-31T10:25:51.027Z,2.40
2023-10-31T10:28:17.830Z,2.30
2023-10-31T10:30:47.408Z,2.55
2023-10-31T10:33:14.108Z,2.40
2023-10-31T10:35:40.642Z,2.42
2023-10-31T10:38:13.303Z,2.35
2023-10-31T10:40:49.509Z,2.35
2023-10-31T10:43:23.799Z,3.10
2023-10-31T10:45:59.347Z,2.75
2023-10-31T10:48:27.912Z,2.40
2023-10-31T10:51:07.061Z,2.63
2023-10-31T10:53:48.249Z,2.40
2023-10-31T10:56:22.976Z,2.35
2023-10-31T10:58:56.366Z,2.42
2023-10-31T11:01:23.768Z,2.50
2023-10-31T11:03:51.171Z,2.75
2023-10-31T11:06:18.318Z,2.63
2023-10-31T11:08:46.430Z,2.10
2023-10-31T11:11:14.030Z,2.40
2023-10-31T11:13:41.548Z,2.25
2023-10-31T11:16:18.515Z,2.50
2023-10-31T11:18:46.536Z,2.10
2023-10-31T11:21:15.072Z,2.08
2023-10-31T11:23:43.902Z,2.45
2023-10-31T11:26:11.107Z,2.50
2023-10-31T11:28:37.622Z,2.13
2023-10-31T11:31:05.433Z,2.10
2023-10-31T11:33:32.076Z,2.58
2023-10-31T11:36:02.901Z,2.20
2023-10-31T11:38:36.221Z,2.20
2023-10-31T11:41:04.548Z,2.35
2023-10-31T11:43:40.693Z,2.20
2023-10-31T11:46:19.006Z,2.20
2023-10-31T11:48:48.035Z,2.10
2023-10-31T11:51:15.145Z,2.42
2023-10-31T11:53:41.661Z,2.60
2023-10-31T11:56:10.909Z,3.30
2023-10-31T11:58:37.505Z,3.20
2023-10-31T12:01:06.178Z,4.05
2023-10-31T12:03:43.771Z,4.03
2023-10-31T12:06:11.411Z,4.07
2023-10-31T12:08:40.462Z,3.85
2023-10-31T12:11:07.935Z,4.50
2023-10-31T12:13:36.499Z,5.05
2023-10-31T12:16:03.664Z,6.15
2023-10-31T12:18:30.220Z,5.53
2023-10-31T12:20:56.970Z,6.45
2023-10-31T12:23:24.333Z,6.53
2023-10-31T12:25:55.113Z,8.43
2023-10-31T12:28:23.200Z,9.95
2023-10-31T12:33:17.755Z,10.55
2023-10-31T12:35:45.314Z,10.82
2023-10-31T12:38:13.684Z,12.23
2023-10-31T12:40:45.378Z,12.40
2023-10-31T12:43:12.047Z,12.05
2023-10-31T12:45:38.637Z,12.45
2023-10-31T12:48:09.868Z,11.88
2023-10-31T12:50:39.104Z,12.45
2023-10-31T12:53:07.100Z,12.43
2023-10-31T12:55:41.883Z,11.93
2023-10-31T12:58:15.973Z,11.40
2023-10-31T13:00:43.618Z,12.40
2023-10-31T13:03:10.917Z,12.25
2023-10-31T13:05:39.738Z,13.32
2023-10-31T13:08:14.818Z,11.80
2023-10-31T13:10:41.658Z,12.55
2023-10-31T13:13:08.161Z,13.48
2023-10-31T13:15:34.767Z,12.38
2023-10-31T13:18:01.375Z,12.52
2023-10-31T13:20:27.965Z,12.98
2023-10-31T13:22:54.555Z,12.50
2023-10-31T13:25:21.576Z,11.88
2023-10-31T13:27:52.228Z,12.45
2023-10-31T13:30:18.870Z,12.05
2023-10-31T13:32:46.247Z,12.32
2023-10-31T13:35:15.292Z,11.50
2023-10-31T13:37:42.120Z,11.65
2023-10-31T13:40:12.474Z,11.80
2023-10-31T13:42:39.051Z,10.80
2023-10-31T13:45:07.555Z,11.15
2023-10-31T13:47:34.574Z,10.88
2023-10-31T13:50:01.237Z,11.43
2023-10-31T13:52:27.915Z,11.48
2023-10-31T13:54:54.429Z,10.52
2023-10-31T13:57:21.010Z,10.82
2023-10-31T13:59:47.680Z,11.30
2023-10-31T14:02:14.311Z,10.93
2023-10-31T14:04:41.111Z,11.20
2023-10-31T14:07:07.718Z,10.00
2023-10-31T14:09:34.717Z,9.20
2023-10-31T14:12:01.296Z,8.73
2023-10-31T14:14:27.840Z,9.32
2023-10-31T14:16:54.548Z,9.07
2023-10-31T14:19:21.087Z,9.20
2023-10-31T14:21:47.790Z,9.77
2023-10-31T14:24:14.396Z,9.73
2023-10-31T14:26:43.904Z,9.75
2023-10-31T14:29:12.227Z,9.93
2023-10-31T14:31:41.224Z,10.43
2023-10-31T14:34:07.994Z,10.20
2023-10-31T14:36:34.578Z,10.10
2023-10-31T14:39:01.086Z,9.70
2023-10-31T14:41:27.690Z,10.27
2023-10-31T14:43:54.266Z,10.30
2023-10-31T14:46:21.803Z,10.55
2023-10-31T14:48:48.366Z,11.27
2023-10-31T14:51:14.894Z,11.70
2023-10-31T14:53:41.550Z,11.93
2023-10-31T14:56:08.613Z,11.13
2023-10-31T14:58:35.115Z,11.35
2023-10-31T15:01:01.771Z,11.63
2023-10-31T15:03:28.347Z,11.10
2023-10-31T15:05:54.998Z,10.10
2023-10-31T15:08:21.522Z,10.93
2023-10-31T15:10:48.019Z,10.50
2023-10-31T15:13:14.529Z,10.00
2023-10-31T15:15:41.885Z,10.25
2023-10-31T15:18:08.565Z,10.25
2023-10-31T15:20:35.514Z,10.00
2023-10-31T15:23:02.313Z,9.93
2023-10-31T15:25:29.265Z,10.05
2023-10-31T15:27:56.015Z,9.75
2023-10-31T15:30:22.630Z,9.27
2023-10-31T15:32:49.272Z,10.23
2023-10-31T15:35:16.022Z,9.40
2023-10-31T15:37:44.076Z,15.43
2023-10-31T15:40:11.180Z,9.07
2023-10-31T15:42:37.740Z,8.55
2023-10-31T15:45:04.791Z,8.65
2023-10-31T15:47:31.428Z,8.10
2023-10-31T15:49:59.516Z,7.82
2023-10-31T15:52:26.120Z,8.20
2023-10-31T15:54:52.624Z,7.32
2023-10-31T15:57:22.515Z,8.02
2023-10-31T15:59:49.691Z,7.88
2023-10-31T16:02:18.122Z,8.10
2023-10-31T16:04:45.571Z,8.05
2023-10-31T16:07:15.536Z,9.10
2023-10-31T16:09:42.103Z,10.52
2023-10-31T16:12:10.211Z,8.65
2023-10-31T16:14:37.121Z,7.90
2023-10-31T16:17:06.448Z,7.95
2023-10-31T16:19:34.521Z,8.10
2023-10-31T16:22:02.942Z,8.43
2023-10-31T16:24:29.521Z,7.80
2023-10-31T16:26:56.052Z,7.90
2023-10-31T16:29:22.642Z,8.07
2023-10-31T16:31:49.412Z,7.90
2023-10-31T16:34:16.089Z,8.18
2023-10-31T16:36:42.636Z,7.95
2023-10-31T16:39:09.267Z,8.30
2023-10-31T16:41:36.007Z,8.10
2023-10-31T16:44:03.335Z,9.30
2023-10-31T16:46:29.837Z,7.90
2023-10-31T16:48:56.433Z,7.53
2023-10-31T16:51:23.886Z,6.53
2023-10-31T16:53:50.719Z,6.97
2023-10-31T16:56:18.527Z,6.93
2023-10-31T16:58:47.128Z,6.72
2023-10-31T17:01:14.895Z,6.45
2023-10-31T17:03:41.656Z,6.20
2023-10-31T17:06:08.930Z,6.95
2023-10-31T17:08:36.868Z,6.78
2023-10-31T17:11:04.612Z,6.30
2023-10-31T17:13:32.970Z,6.28
2023-10-31T17:16:00.033Z,6.75
2023-10-31T17:18:28.557Z,6.35
2023-10-31T17:20:56.521Z,6.38
2023-10-31T17:23:24.631Z,6.63
2023-10-31T17:25:53.065Z,6.82
2023-10-31T17:28:19.965Z,7.05
2023-10-31T17:30:46.924Z,9.00
2023-10-31T17:33:14.362Z,7.00
2023-10-31T17:35:42.079Z,7.13
2023-10-31T17:38:09.391Z,7.45
2023-10-31T17:40:36.619Z,6.85
2023-10-31T17:43:03.428Z,7.05
2023-10-31T17:45:30.041Z,7.22
2023-10-31T17:47:57.610Z,7.45
2023-10-31T17:50:24.361Z,7.95
2023-10-31T17:52:50.987Z,7.32
2023-10-31T17:55:20.316Z,8.50
2023-10-31T17:57:47.141Z,7.30
2023-10-31T18:00:14.139Z,7.75
2023-10-31T18:02:41.237Z,8.45
2023-10-31T18:05:10.196Z,8.07
2023-10-31T18:07:36.813Z,7.70
2023-10-31T18:10:03.774Z,8.13
2023-10-31T18:12:30.434Z,7.82
2023-10-31T18:14:56.965Z,7.82
2023-10-31T18:17:23.411Z,9.35
2023-10-31T18:19:49.893Z,8.27
2023-10-31T18:22:17.721Z,8.25
2023-10-31T18:27:11.573Z,7.60
2023-10-31T18:29:41.963Z,8.48
2023-10-31T18:32:08.668Z,8.38
2023-10-31T18:34:36.012Z,8.55
2023-10-31T18:37:03.231Z,8.70
2023-10-31T18:39:29.792Z,8.50
2023-10-31T18:42:03.529Z,8.57
2023-10-31T18:44:42.899Z,8.45
2023-10-31T18:47:16.393Z,8.88
2023-10-31T18:49:42.972Z,7.82
2023-10-31T18:52:09.445Z,8.13
2023-10-31T18:54:35.976Z,8.75
2023-10-31T18:57:03.965Z,8.27
2023-10-31T18:59:31.627Z,8.40
2023-10-31T19:01:59.809Z,8.40
2023-10-31T19:04:26.986Z,8.45
2023-10-31T19:06:53.657Z,9.00
2023-10-31T19:09:20.910Z,9.38
2023-10-31T19:11:50.859Z,9.00
2023-10-31T19:14:17.672Z,9.25
2023-10-31T19:16:44.509Z,8.68
2023-10-31T19:19:11.185Z,9.30
2023-10-31T19:21:37.967Z,8.75
2023-10-31T19:24:04.933Z,9.13
2023-10-31T19:26:31.613Z,8.85
2023-10-31T19:28:58.191Z,9.02
2023-10-31T19:31:24.765Z,8.70
2023-10-31T19:33:51.399Z,8.60
2023-10-31T19:36:20.066Z,9.23
2023-10-31T19:38:47.389Z,8.18
2023-10-31T19:41:14.193Z,8.27
2023-10-31T19:43:40.784Z,8.43
2023-10-31T19:46:07.346Z,8.95
2023-10-31T19:48:34.024Z,9.18
2023-10-31T19:51:01.855Z,8.98
2023-10-31T19:53:28.756Z,9.70
2023-10-31T19:55:55.268Z,9.38
2023-10-31T19:58:24.427Z,9.45
2023-10-31T20:00:51.680Z,10.82
2023-10-31T20:03:20.609Z,10.07
2023-10-31T20:05:48.500Z,10.20
2023-10-31T20:08:15.362Z,10.30
2023-10-31T20:10:43.206Z,10.30
2023-10-31T20:13:09.869Z,10.25
2023-10-31T20:15:36.379Z,9.70
2023-10-31T20:18:03.802Z,9.70
2023-10-31T20:20:30.396Z,9.63
2023-10-31T20:22:57.363Z,9.07
2023-10-31T20:25:23.936Z,9.55
2023-10-31T20:27:50.392Z,9.13
2023-10-31T20:30:17.023Z,10.10
2023-10-31T20:32:43.801Z,10.02
2023-10-31T20:35:10.621Z,9.35
2023-10-31T20:37:37.260Z,9.50
2023-10-31T20:40:04.206Z,10.15
2023-10-31T20:42:31.174Z,10.27
2023-10-31T20:44:57.772Z,11.25
2023-10-31T20:47:24.362Z,10.77
2023-10-31T20:49:54.270Z,10.02
2023-10-31T20:52:21.096Z,9.60
2023-10-31T20:54:47.752Z,8.60
2023-10-31T20:57:14.256Z,8.05
2023-10-31T20:59:45.276Z,7.93
2023-10-31T21:02:12.140Z,7.50
2023-10-31T21:04:38.714Z,6.97
2023-10-31T21:07:05.547Z,6.50
2023-10-31T21:09:32.303Z,7.32
2023-10-31T21:11:58.870Z,8.27
2023-10-31T21:14:25.461Z,20.13
2023-10-31T21:16:51.995Z,13.00
2023-10-31T21:19:24.811Z,7.07
2023-10-31T21:21:57.885Z,5.60
2023-10-31T21:24:24.499Z,5.70
2023-10-31T21:26:51.066Z,6.30
2023-10-31T21:29:17.585Z,7.45
2023-10-31T21:31:44.112Z,11.60
2023-10-31T21:34:13.288Z,4.82
2023-10-31T21:36:40.584Z,2.70
2023-10-31T21:39:07.109Z,2.30
2023-10-31T21:41:33.689Z,2.90
2023-10-31T21:44:00.770Z,2.20
2023-10-31T21:46:27.295Z,2.38
2023-10-31T21:48:53.810Z,2.42
2023-10-31T21:51:20.444Z,2.58
2023-10-31T21:53:46.960Z,2.22
2023-10-31T21:56:13.477Z,2.22
2023-10-31T21:58:40.026Z,2.90
2023-10-31T22:01:06.713Z,2.30
2023-10-31T22:03:33.413Z,2.65
2023-10-31T22:06:00.175Z,2.65
2023-10-31T22:08:26.753Z,2.60
2023-10-31T22:10:53.290Z,2.50
2023-10-31T22:13:20.348Z,2.33
2023-10-31T22:15:46.982Z,2.70
2023-10-31T22:18:14.361Z,2.60
2023-10-31T22:20:42.285Z,2.63
2023-10-31T22:23:10.085Z,2.67
2023-10-31T22:25:36.641Z,3.15
2023-10-31T22:28:03.234Z,3.40
2023-10-31T22:30:29.851Z,4.18
2023-10-31T22:32:56.416Z,5.72
2023-10-31T22:35:22.978Z,6.28
2023-10-31T22:37:49.564Z,7.25
2023-10-31T22:40:16.094Z,7.68
2023-10-31T22:42:42.702Z,6.85
2023-10-31T22:45:10.181Z,6.85
2023-10-31T22:47:40.443Z,8.20
2023-10-31T22:50:10.104Z,8.40
2023-10-31T22:52:36.818Z,8.45
2023-10-31T22:55:04.119Z,8.75
2023-10-31T22:57:31.437Z,9.18
2023-10-31T22:59:58.034Z,9.70
2023-10-31T23:02:24.821Z,9.07
2023-10-31T23:04:54.328Z,8.80
2023-10-31T23:07:21.236Z,9.75
2023-10-31T23:09:47.936Z,8.90
2023-10-31T23:12:15.606Z,9.57
2023-10-31T23:14:42.236Z,9.02
2023-10-31T23:17:08.886Z,9.05
2023-10-31T23:19:35.609Z,8.95
2023-10-31T23:22:02.257Z,8.73
2023-10-31T23:24:28.867Z,9.15
2023-10-31T23:26:56.025Z,8.80
2023-10-31T23:29:23.051Z,9.32
2023-10-31T23:31:49.624Z,9.20
2023-10-31T23:34:16.952Z,9.23
2023-10-31T23:36:43.553Z,9.32
2023-10-31T23:39:10.407Z,9.43
2023-10-31T23:41:38.326Z,9.20
2023-10-31T23:44:05.401Z,9.80
2023-10-31T23:46:32.012Z,10.38
2023-10-31T23:48:58.593Z,10.13
2023-10-31T23:51:25.563Z,9.23
2023-10-31T23:53:52.734Z,9.88
2023-10-31T23:56:19.491Z,8.70
2023-10-31T23:58:46.122Z,8.93
